Terminal Aerodrome Forecast
Issued by NWS Boston, MA

Home | Current Version | Previous Version | Text Only | Print | Product List | Glossary On
Versions: 1 2 3 4 5 6 7 8 9 10 11 12 13 14 15 16 17 18
000
FTUS41 KBOX 182335
TAFORH
TAF
KORH 182335Z 1900/1924 21005KT P6SM BKN250
     FM190500 24006KT P6SM BKN140
     FM191100 28010KT P6SM FEW200
     FM191600 31013G22KT P6SM SKC
     FM192300 35010G19KT P6SM SKC=

USA.gov is the U.S. government's official web portal to all federal, state and local government web resources and services.